createdAt,value
2018-12-23T00:00:16.750Z,0.00
2018-12-23T00:01:16.737Z,0.00
2018-12-23T00:02:16.726Z,0.00
2018-12-23T00:03:16.713Z,0.00
2018-12-23T00:04:16.703Z,0.00
2018-12-23T00:05:16.689Z,0.00
2018-12-23T00:06:16.678Z,0.00
2018-12-23T00:07:16.673Z,0.00
2018-12-23T00:08:16.654Z,0.00
2018-12-23T00:09:16.643Z,0.00
2018-12-23T00:10:16.632Z,0.00
2018-12-23T00:11:16.618Z,0.00
2018-12-23T00:12:16.608Z,0.00
2018-12-23T00:13:16.613Z,0.00
2018-12-23T00:14:16.584Z,0.00
2018-12-23T00:15:16.570Z,0.00
2018-12-23T00:16:16.559Z,0.00
2018-12-23T00:17:16.547Z,0.00
2018-12-23T00:18:16.535Z,0.00
2018-12-23T00:19:16.523Z,0.00
2018-12-23T00:20:16.511Z,0.00
2018-12-23T00:21:16.499Z,0.00
2018-12-23T00:22:16.487Z,0.00
2018-12-23T00:23:16.474Z,0.00
2018-12-23T00:24:16.463Z,0.00
2018-12-23T00:25:16.451Z,0.00
2018-12-23T00:26:16.439Z,0.00
2018-12-23T00:27:16.426Z,0.00
2018-12-23T00:28:16.414Z,0.00
2018-12-23T00:29:16.403Z,0.00
2018-12-23T00:30:16.390Z,0.00
2018-12-23T00:31:16.379Z,0.00
2018-12-23T00:32:16.366Z,0.00
2018-12-23T00:33:16.354Z,0.00
2018-12-23T00:34:16.343Z,0.00
2018-12-23T00:35:20.256Z,0.00
2018-12-23T00:36:16.322Z,0.00
2018-12-23T00:37:16.309Z,0.00
2018-12-23T00:38:16.299Z,0.00
2018-12-23T00:39:16.284Z,0.00
2018-12-23T00:40:16.269Z,0.00
2018-12-23T00:41:16.258Z,0.00
2018-12-23T00:42:16.295Z,0.00
2018-12-23T00:43:16.232Z,0.00
2018-12-23T00:44:16.226Z,0.00
2018-12-23T00:45:16.209Z,0.00
2018-12-23T00:46:16.197Z,0.00
2018-12-23T00:47:16.434Z,0.00
2018-12-23T00:48:16.172Z,0.00
2018-12-23T00:49:16.160Z,0.00
2018-12-23T00:50:16.152Z,0.00
2018-12-23T00:51:16.136Z,0.00
2018-12-23T00:52:16.123Z,0.00
2018-12-23T00:53:16.112Z,0.00
2018-12-23T00:54:16.104Z,0.00
2018-12-23T00:55:16.086Z,0.00
2018-12-23T00:56:16.075Z,0.00
2018-12-23T00:57:16.065Z,0.00
2018-12-23T00:58:16.051Z,0.00
2018-12-23T00:59:16.038Z,0.00
2018-12-23T01:00:16.029Z,0.00
2018-12-23T01:01:16.016Z,0.00
2018-12-23T01:02:16.003Z,0.00
2018-12-23T01:03:15.990Z,0.00
2018-12-23T01:04:15.978Z,0.00
2018-12-23T01:05:15.969Z,0.00
2018-12-23T01:06:15.955Z,0.00
2018-12-23T01:07:15.941Z,0.00
2018-12-23T01:08:15.930Z,0.00
2018-12-23T01:09:15.919Z,0.00
2018-12-23T01:10:15.912Z,0.00
2018-12-23T01:11:15.894Z,0.00
2018-12-23T01:12:15.884Z,0.00
2018-12-23T01:13:15.870Z,0.00
2018-12-23T01:14:15.858Z,0.00
2018-12-23T01:15:15.848Z,0.00
2018-12-23T01:16:15.833Z,0.00
2018-12-23T01:17:15.822Z,0.00
2018-12-23T01:18:15.810Z,0.00
2018-12-23T01:19:15.797Z,0.00
2018-12-23T01:20:15.788Z,0.00
2018-12-23T01:21:15.773Z,0.00
2018-12-23T01:22:15.766Z,0.00
2018-12-23T01:23:15.748Z,0.00
2018-12-23T01:24:15.736Z,0.00
2018-12-23T01:25:15.724Z,0.00
2018-12-23T01:26:15.717Z,0.00
2018-12-23T01:27:15.750Z,0.00
2018-12-23T01:28:15.689Z,0.00
2018-12-23T01:29:15.676Z,0.00
2018-12-23T01:30:15.664Z,0.00
2018-12-23T01:31:15.650Z,0.00
2018-12-23T01:32:15.638Z,0.00
2018-12-23T01:33:15.626Z,0.00
2018-12-23T01:34:15.614Z,0.00
2018-12-23T01:35:15.601Z,0.00
2018-12-23T01:36:15.589Z,0.00
2018-12-23T01:37:15.577Z,0.00
2018-12-23T01:38:15.566Z,0.00
2018-12-23T01:39:15.552Z,0.00
2018-12-23T01:40:15.541Z,0.00
2018-12-23T01:41:15.528Z,0.00
2018-12-23T01:42:15.522Z,0.00
2018-12-23T01:43:15.503Z,0.00
2018-12-23T01:44:15.492Z,0.00
2018-12-23T01:45:15.478Z,0.00
2018-12-23T01:46:15.467Z,0.00
2018-12-23T01:47:15.454Z,0.00
2018-12-23T01:48:15.442Z,0.00
2018-12-23T01:49:15.429Z,0.00
2018-12-23T01:50:15.417Z,0.00
2018-12-23T01:51:15.404Z,0.00
2018-12-23T01:52:15.392Z,0.00
2018-12-23T01:53:15.380Z,0.00
2018-12-23T01:54:15.368Z,0.00
2018-12-23T01:55:15.355Z,0.00
2018-12-23T01:56:15.343Z,0.00
2018-12-23T01:57:15.332Z,0.00
2018-12-23T01:58:15.322Z,0.00
2018-12-23T01:59:15.306Z,0.00
2018-12-23T02:00:15.294Z,0.00
2018-12-23T02:01:15.282Z,0.00
2018-12-23T02:02:15.339Z,0.00
2018-12-23T02:03:15.257Z,0.00
2018-12-23T02:04:15.245Z,0.00
2018-12-23T02:05:15.235Z,0.00
2018-12-23T02:06:15.221Z,0.00
2018-12-23T02:07:15.208Z,0.00
2018-12-23T02:08:15.402Z,0.00
2018-12-23T02:09:15.185Z,0.00
2018-12-23T02:10:15.172Z,0.00
2018-12-23T02:11:15.192Z,0.00
2018-12-23T02:12:15.148Z,0.00
2018-12-23T02:13:15.136Z,0.00
2018-12-23T02:14:15.327Z,0.00
2018-12-23T02:15:15.114Z,0.00
2018-12-23T02:16:15.101Z,0.00
2018-12-23T02:17:15.093Z,0.00
2018-12-23T02:18:15.076Z,0.00
2018-12-23T02:19:15.063Z,0.00
2018-12-23T02:20:15.052Z,0.00
2018-12-23T02:21:15.040Z,0.00
2018-12-23T02:22:15.029Z,0.00
2018-12-23T02:23:15.016Z,0.00
2018-12-23T02:24:15.006Z,0.00
2018-12-23T02:25:14.993Z,0.00
2018-12-23T02:26:14.981Z,0.00
2018-12-23T02:27:14.968Z,0.00
2018-12-23T02:28:14.958Z,0.00
2018-12-23T02:29:14.953Z,0.00
2018-12-23T02:30:14.937Z,0.00
2018-12-23T02:31:14.933Z,0.00
2018-12-23T02:32:14.912Z,0.00
2018-12-23T02:33:14.899Z,0.00
2018-12-23T02:34:14.891Z,0.00
2018-12-23T02:35:14.873Z,0.00
2018-12-23T02:36:14.863Z,0.00
2018-12-23T02:37:14.850Z,0.00
2018-12-23T02:38:14.842Z,0.00
2018-12-23T02:39:15.076Z,0.00
2018-12-23T02:40:14.815Z,0.00
2018-12-23T02:41:14.804Z,0.00
2018-12-23T02:42:14.793Z,0.00
2018-12-23T02:43:14.779Z,0.00
2018-12-23T02:44:14.771Z,0.00
2018-12-23T02:45:14.759Z,0.00
2018-12-23T02:46:14.746Z,0.00
2018-12-23T02:47:14.733Z,0.00
2018-12-23T02:48:14.722Z,0.00
2018-12-23T02:49:14.709Z,0.00
2018-12-23T02:50:14.707Z,0.00
2018-12-23T02:51:14.687Z,0.00
2018-12-23T02:52:14.673Z,0.00
2018-12-23T02:53:14.662Z,0.00
2018-12-23T02:54:14.651Z,0.00
2018-12-23T02:55:14.639Z,0.00
2018-12-23T02:56:14.627Z,0.00
2018-12-23T02:57:14.616Z,0.00
2018-12-23T02:58:14.604Z,0.00
2018-12-23T02:59:14.591Z,0.00
2018-12-23T03:00:14.584Z,0.00
2018-12-23T03:01:14.573Z,0.00
2018-12-23T03:02:14.557Z,0.00
2018-12-23T03:03:14.549Z,0.00
2018-12-23T03:04:14.534Z,0.00
2018-12-23T03:05:14.525Z,0.00
2018-12-23T03:06:14.513Z,0.00
2018-12-23T03:07:14.500Z,0.00
2018-12-23T03:08:14.488Z,0.00
2018-12-23T03:09:14.479Z,0.00
2018-12-23T03:10:14.715Z,0.00
2018-12-23T03:11:14.453Z,0.00
2018-12-23T03:12:14.441Z,0.00
2018-12-23T03:13:14.430Z,0.00
2018-12-23T03:14:14.418Z,0.00
2018-12-23T03:15:14.408Z,0.00
2018-12-23T03:16:14.399Z,0.00
2018-12-23T03:17:14.385Z,0.00
2018-12-23T03:18:14.372Z,0.00
2018-12-23T03:19:14.360Z,0.00
2018-12-23T03:20:14.353Z,0.00
2018-12-23T03:21:14.336Z,0.00
2018-12-23T03:22:14.326Z,0.00
2018-12-23T03:23:14.313Z,0.00
2018-12-23T03:24:14.301Z,0.00
2018-12-23T03:25:14.291Z,0.00
2018-12-23T03:26:14.279Z,0.00
2018-12-23T03:27:14.267Z,0.00
2018-12-23T03:28:14.254Z,0.00
2018-12-23T03:29:14.243Z,0.00
2018-12-23T03:30:14.235Z,0.00
2018-12-23T03:31:14.431Z,0.00
2018-12-23T03:32:14.220Z,0.00
2018-12-23T03:33:14.198Z,0.00
2018-12-23T03:34:14.185Z,0.00
2018-12-23T03:35:14.253Z,0.00
2018-12-23T03:36:15.237Z,0.00
2018-12-23T03:37:14.151Z,0.00
2018-12-23T03:38:14.139Z,0.00
2018-12-23T03:39:14.127Z,0.00
2018-12-23T03:40:14.119Z,0.00
2018-12-23T03:41:14.104Z,0.00
2018-12-23T03:42:14.092Z,0.00
2018-12-23T03:43:14.082Z,0.00
2018-12-23T03:44:14.074Z,0.00
2018-12-23T03:45:14.063Z,0.00
2018-12-23T03:46:14.049Z,0.00
2018-12-23T03:47:14.237Z,0.00
2018-12-23T03:48:14.023Z,0.00
2018-12-23T03:49:14.013Z,0.00
2018-12-23T03:50:14.001Z,0.00
2018-12-23T03:51:13.988Z,0.00
2018-12-23T03:52:13.977Z,0.00
2018-12-23T03:53:13.966Z,0.00
2018-12-23T03:54:13.954Z,0.00
2018-12-23T03:55:13.948Z,0.00
2018-12-23T03:56:13.934Z,0.00
2018-12-23T03:57:13.920Z,0.00
2018-12-23T03:58:13.909Z,0.00
2018-12-23T03:59:13.898Z,0.00
2018-12-23T04:00:13.894Z,0.00
2018-12-23T04:01:13.875Z,0.00
2018-12-23T04:02:13.862Z,0.00
2018-12-23T04:03:13.850Z,0.00
2018-12-23T04:04:13.841Z,0.00
2018-12-23T04:05:13.827Z,0.00
2018-12-23T04:06:13.816Z,0.00
2018-12-23T04:07:13.804Z,0.00
2018-12-23T04:08:13.792Z,0.00
2018-12-23T04:09:13.781Z,0.00
2018-12-23T04:10:13.770Z,0.00
2018-12-23T04:11:13.758Z,0.00
2018-12-23T04:12:13.748Z,0.00
2018-12-23T04:13:13.734Z,0.00
2018-12-23T04:14:13.723Z,0.00
2018-12-23T04:15:13.711Z,0.00
2018-12-23T04:16:13.705Z,0.00
2018-12-23T04:17:13.690Z,0.00
2018-12-23T04:18:13.677Z,0.00
2018-12-23T04:19:13.665Z,0.00
2018-12-23T04:20:13.655Z,0.00
2018-12-23T04:21:13.650Z,0.00
2018-12-23T04:22:13.638Z,0.00
2018-12-23T04:23:13.617Z,0.00
2018-12-23T04:24:13.606Z,0.00
2018-12-23T04:25:13.596Z,0.00
2018-12-23T04:26:13.585Z,0.00
2018-12-23T04:27:13.571Z,0.00
2018-12-23T04:28:13.578Z,0.00
2018-12-23T04:29:13.549Z,0.00
2018-12-23T04:30:13.537Z,0.00
2018-12-23T04:31:13.529Z,0.00
2018-12-23T04:32:13.514Z,0.00
2018-12-23T04:33:13.501Z,0.00
2018-12-23T04:34:13.491Z,0.00
2018-12-23T04:35:13.480Z,0.00
2018-12-23T04:36:13.466Z,0.00
2018-12-23T04:37:13.455Z,0.00
2018-12-23T04:38:13.444Z,0.00
2018-12-23T04:39:13.430Z,0.00
2018-12-23T04:40:13.421Z,0.00
2018-12-23T04:41:13.408Z,0.00
2018-12-23T04:42:13.396Z,0.00
2018-12-23T04:43:13.386Z,0.00
2018-12-23T04:44:13.373Z,0.00
2018-12-23T04:45:13.361Z,0.00
2018-12-23T04:46:13.350Z,0.00
2018-12-23T04:47:13.341Z,0.00
2018-12-23T04:48:13.328Z,0.00
2018-12-23T04:49:13.314Z,0.00
2018-12-23T04:50:13.303Z,0.00
2018-12-23T04:51:13.292Z,0.00
2018-12-23T04:52:13.283Z,0.00
2018-12-23T04:53:13.269Z,0.00
2018-12-23T04:54:13.257Z,0.00
2018-12-23T04:55:13.245Z,0.00
2018-12-23T04:56:13.235Z,0.00
2018-12-23T04:57:13.223Z,0.00
2018-12-23T04:58:13.211Z,0.00
2018-12-23T04:59:13.199Z,0.00
2018-12-23T05:00:13.186Z,0.00
2018-12-23T05:01:13.175Z,0.00
2018-12-23T05:02:13.163Z,0.00
2018-12-23T05:03:13.154Z,0.00
2018-12-23T05:04:13.144Z,0.00
2018-12-23T05:05:13.129Z,0.00
2018-12-23T05:06:13.119Z,0.00
2018-12-23T05:07:13.111Z,0.00
2018-12-23T05:08:13.093Z,0.00
2018-12-23T05:09:13.082Z,0.00
2018-12-23T05:10:13.071Z,0.00
2018-12-23T05:11:13.068Z,0.00
2018-12-23T05:12:13.048Z,0.00
2018-12-23T05:13:13.037Z,0.00
2018-12-23T05:14:13.025Z,0.00
2018-12-23T05:15:13.014Z,0.00
2018-12-23T05:16:13.000Z,0.00
2018-12-23T05:17:12.994Z,0.00
2018-12-23T05:18:12.979Z,0.00
2018-12-23T05:19:12.965Z,0.00
2018-12-23T05:20:12.955Z,0.00
2018-12-23T05:21:12.942Z,0.00
2018-12-23T05:22:12.930Z,0.00
2018-12-23T05:23:12.919Z,0.00
2018-12-23T05:24:12.907Z,0.00
2018-12-23T05:25:12.896Z,0.00
2018-12-23T05:26:12.884Z,0.00
2018-12-23T05:27:12.872Z,0.00
2018-12-23T05:28:12.861Z,0.00
2018-12-23T05:29:12.861Z,0.00
2018-12-23T05:30:12.838Z,0.00
2018-12-23T05:31:12.826Z,0.00
2018-12-23T05:32:12.816Z,0.00
2018-12-23T05:33:12.807Z,0.00
2018-12-23T05:34:12.794Z,0.00
2018-12-23T05:35:12.783Z,0.00
2018-12-23T05:36:12.770Z,0.00
2018-12-23T05:37:12.757Z,0.00
2018-12-23T05:38:12.746Z,0.00
2018-12-23T05:39:12.734Z,0.00
2018-12-23T05:40:12.724Z,0.00
2018-12-23T05:41:12.711Z,0.00
2018-12-23T05:42:12.700Z,0.00
2018-12-23T05:43:12.688Z,0.00
2018-12-23T05:44:12.677Z,0.00
2018-12-23T05:45:12.665Z,0.00
2018-12-23T05:46:12.655Z,0.00
2018-12-23T05:47:12.641Z,0.00
2018-12-23T05:48:12.632Z,0.00
2018-12-23T05:49:12.622Z,0.00
2018-12-23T05:50:12.608Z,0.00
2018-12-23T05:51:12.598Z,0.00
2018-12-23T05:52:12.587Z,0.00
2018-12-23T05:53:12.574Z,0.00
2018-12-23T05:54:12.562Z,0.00
2018-12-23T05:55:12.551Z,0.00
2018-12-23T05:56:12.539Z,0.00
2018-12-23T05:57:12.634Z,0.00
2018-12-23T05:58:12.516Z,0.00
2018-12-23T05:59:12.504Z,0.00
2018-12-23T06:00:12.497Z,0.00
2018-12-23T06:01:12.481Z,0.00
2018-12-23T06:02:12.469Z,0.00
2018-12-23T06:03:12.457Z,0.00
2018-12-23T06:04:12.446Z,0.00
2018-12-23T06:05:12.435Z,0.00
2018-12-23T06:06:12.545Z,0.00
2018-12-23T06:07:12.411Z,0.00
2018-12-23T06:08:12.603Z,0.00
2018-12-23T06:09:12.389Z,0.00
2018-12-23T06:10:12.377Z,0.00
2018-12-23T06:11:12.365Z,0.00
2018-12-23T06:12:12.355Z,0.00
2018-12-23T06:13:12.343Z,0.00
2018-12-23T06:14:12.332Z,0.00
2018-12-23T06:15:12.320Z,0.00
2018-12-23T06:16:12.309Z,0.00
2018-12-23T06:17:12.298Z,0.00
2018-12-23T06:18:12.488Z,0.00
2018-12-23T06:19:12.277Z,0.00
2018-12-23T06:20:12.263Z,0.00
2018-12-23T06:21:12.253Z,0.00
2018-12-23T06:22:12.259Z,0.00
2018-12-23T06:23:12.228Z,0.00
2018-12-23T06:24:12.218Z,0.00
2018-12-23T06:25:12.211Z,0.00
2018-12-23T06:26:12.195Z,0.00
2018-12-23T06:27:12.185Z,0.00
2018-12-23T06:28:12.175Z,0.00
2018-12-23T06:29:12.161Z,0.00
2018-12-23T06:30:12.149Z,0.00
2018-12-23T06:31:12.136Z,0.00
2018-12-23T06:32:12.126Z,0.00
2018-12-23T06:33:12.118Z,0.00
2018-12-23T06:34:12.105Z,0.00
2018-12-23T06:35:12.096Z,0.00
2018-12-23T06:36:12.080Z,0.00
2018-12-23T06:37:12.069Z,0.00
2018-12-23T06:38:12.058Z,0.00
2018-12-23T06:39:12.046Z,0.00
2018-12-23T06:40:12.037Z,0.00
2018-12-23T06:41:12.023Z,0.00
2018-12-23T06:42:12.012Z,0.00
2018-12-23T06:43:12.001Z,0.00
2018-12-23T06:44:11.991Z,0.00
2018-12-23T06:45:11.978Z,0.00
2018-12-23T06:46:11.967Z,0.00
2018-12-23T06:47:11.955Z,0.00
2018-12-23T06:48:11.945Z,0.00
2018-12-23T06:49:11.933Z,0.00
2018-12-23T06:50:11.922Z,0.00
2018-12-23T06:51:11.910Z,0.00
2018-12-23T06:52:11.899Z,0.00
2018-12-23T06:53:11.899Z,0.00
2018-12-23T06:54:11.882Z,0.00
2018-12-23T06:55:11.864Z,0.00
2018-12-23T06:56:11.853Z,0.00
2018-12-23T06:57:11.843Z,0.00
2018-12-23T06:58:11.835Z,0.00
2018-12-23T06:59:11.820Z,0.00
2018-12-23T07:00:11.808Z,0.00
2018-12-23T07:01:11.797Z,0.00
2018-12-23T07:02:11.787Z,0.00
2018-12-23T07:03:11.777Z,0.00
2018-12-23T07:04:11.763Z,0.00
2018-12-23T07:05:11.752Z,0.00
2018-12-23T07:06:11.741Z,0.00
2018-12-23T07:07:18.637Z,0.00
2018-12-23T07:08:11.718Z,0.00
2018-12-23T07:09:11.706Z,0.00
2018-12-23T07:10:11.695Z,0.00
2018-12-23T07:11:11.683Z,0.00
2018-12-23T07:12:11.672Z,0.00
2018-12-23T07:13:11.661Z,0.00
2018-12-23T07:14:11.649Z,0.00
2018-12-23T07:15:11.743Z,0.00
2018-12-23T07:16:11.627Z,0.00
2018-12-23T07:17:11.615Z,0.00
2018-12-23T07:18:11.603Z,0.00
2018-12-23T07:19:11.599Z,0.00
2018-12-23T07:20:11.585Z,0.00
2018-12-23T07:21:11.569Z,0.00
2018-12-23T07:22:11.558Z,0.00
2018-12-23T07:23:11.545Z,0.00
2018-12-23T07:24:11.537Z,0.00
2018-12-23T07:25:11.524Z,0.00
2018-12-23T07:26:11.512Z,0.00
2018-12-23T07:27:11.499Z,0.00
2018-12-23T07:28:11.488Z,0.00
2018-12-23T07:29:11.479Z,0.00
2018-12-23T07:30:11.466Z,0.00
2018-12-23T07:31:11.453Z,0.00
2018-12-23T07:32:11.442Z,0.00
2018-12-23T07:33:11.434Z,0.00
2018-12-23T07:34:11.420Z,0.00
2018-12-23T07:35:11.408Z,0.00
2018-12-23T07:36:11.398Z,5.63
2018-12-23T07:37:11.385Z,5.63
2018-12-23T07:38:11.575Z,5.63
2018-12-23T07:39:11.362Z,5.63
2018-12-23T07:40:11.351Z,5.63
2018-12-23T07:41:11.339Z,5.63
2018-12-23T07:42:11.326Z,5.63
2018-12-23T07:43:11.314Z,5.63
2018-12-23T07:44:11.359Z,11.25
2018-12-23T07:45:11.291Z,11.25
2018-12-23T07:46:11.283Z,11.25
2018-12-23T07:47:11.269Z,11.25
2018-12-23T07:48:11.257Z,11.25
2018-12-23T07:49:11.250Z,11.25
2018-12-23T07:50:11.234Z,11.25
2018-12-23T07:51:11.222Z,16.88
2018-12-23T07:52:11.219Z,16.88
2018-12-23T07:53:11.200Z,16.88
2018-12-23T07:54:11.193Z,16.88
2018-12-23T07:55:11.176Z,22.50
2018-12-23T07:56:11.164Z,22.50
2018-12-23T07:57:11.154Z,22.50
2018-12-23T07:58:11.142Z,22.50
2018-12-23T07:59:11.227Z,22.50
2018-12-23T08:00:11.118Z,22.50
2018-12-23T08:01:11.166Z,22.50
2018-12-23T08:02:11.097Z,28.13
2018-12-23T08:03:11.285Z,28.13
2018-12-23T08:04:11.071Z,33.75
2018-12-23T08:05:11.061Z,39.38
2018-12-23T08:06:11.048Z,39.38
2018-12-23T08:07:11.091Z,45.00
2018-12-23T08:08:11.025Z,50.63
2018-12-23T08:09:11.019Z,50.63
2018-12-23T08:10:11.003Z,50.63
2018-12-23T08:11:10.992Z,50.63
2018-12-23T08:12:10.977Z,56.25
2018-12-23T08:13:10.975Z,56.25
2018-12-23T08:14:10.955Z,61.88
2018-12-23T08:15:10.942Z,61.88
2018-12-23T08:16:10.931Z,61.88
2018-12-23T08:17:10.921Z,61.88
2018-12-23T08:18:10.908Z,61.88
2018-12-23T08:19:10.897Z,61.88
2018-12-23T08:20:10.885Z,61.88
2018-12-23T08:21:10.873Z,61.88
2018-12-23T08:22:10.865Z,67.50
2018-12-23T08:23:10.852Z,67.50
2018-12-23T08:24:10.848Z,73.13
2018-12-23T08:25:10.826Z,73.13
2018-12-23T08:26:10.821Z,73.13
2018-12-23T08:27:10.809Z,78.75
2018-12-23T08:28:10.791Z,78.75
2018-12-23T08:29:10.779Z,78.75
2018-12-23T08:30:10.768Z,78.75
2018-12-23T08:31:10.758Z,78.75
2018-12-23T08:32:10.746Z,78.75
2018-12-23T08:33:10.941Z,78.75
2018-12-23T08:34:10.722Z,78.75
2018-12-23T08:35:10.709Z,78.75
2018-12-23T08:36:10.698Z,73.13
2018-12-23T08:37:10.687Z,78.75
2018-12-23T08:38:10.680Z,73.13
2018-12-23T08:39:10.662Z,73.13
2018-12-23T08:40:10.651Z,78.75
2018-12-23T08:41:10.640Z,78.75
2018-12-23T08:42:10.628Z,78.75
2018-12-23T08:43:10.621Z,84.38
2018-12-23T08:44:10.605Z,84.38
2018-12-23T08:45:10.593Z,84.38
2018-12-23T08:46:10.584Z,84.38
2018-12-23T08:47:10.570Z,84.38
2018-12-23T08:48:10.558Z,84.38
2018-12-23T08:49:10.548Z,84.38
2018-12-23T08:50:10.542Z,84.38
2018-12-23T08:51:10.527Z,84.38
2018-12-23T08:52:10.514Z,84.38
2018-12-23T08:53:10.500Z,84.38
2018-12-23T08:54:10.496Z,84.38
2018-12-23T08:55:10.478Z,84.38
2018-12-23T08:56:10.465Z,90.00
2018-12-23T08:57:10.454Z,90.00
2018-12-23T08:58:10.443Z,90.00
2018-12-23T08:59:10.434Z,90.00
2018-12-23T09:00:10.421Z,90.00
2018-12-23T09:01:10.411Z,90.00
2018-12-23T09:02:10.399Z,90.00
2018-12-23T09:03:18.636Z,90.00
2018-12-23T09:04:10.377Z,90.00
2018-12-23T09:05:10.361Z,90.00
2018-12-23T09:06:10.350Z,90.00
2018-12-23T09:07:10.339Z,90.00
2018-12-23T09:08:10.331Z,90.00
2018-12-23T09:09:10.316Z,90.00
2018-12-23T09:10:10.304Z,90.00
2018-12-23T09:11:10.293Z,90.00
2018-12-23T09:12:10.284Z,90.00
2018-12-23T09:13:10.272Z,90.00
2018-12-23T09:14:10.264Z,90.00
2018-12-23T09:15:10.250Z,90.00
2018-12-23T09:16:10.235Z,95.63
2018-12-23T09:17:10.232Z,95.63
2018-12-23T09:18:10.213Z,95.63
2018-12-23T09:19:10.205Z,95.63
2018-12-23T09:20:10.189Z,95.63
2018-12-23T09:21:10.178Z,95.63
2018-12-23T09:22:10.369Z,101.25
2018-12-23T09:23:10.157Z,101.25
2018-12-23T09:24:10.147Z,101.25
2018-12-23T09:25:10.133Z,101.25
2018-12-23T09:26:10.128Z,101.25
2018-12-23T09:27:10.109Z,106.88
2018-12-23T09:28:10.099Z,106.88
2018-12-23T09:29:10.088Z,112.50
2018-12-23T09:30:10.074Z,112.50
2018-12-23T09:31:10.068Z,118.13
2018-12-23T09:32:10.053Z,118.13
2018-12-23T09:33:10.039Z,118.13
2018-12-23T09:34:10.033Z,118.13
2018-12-23T09:35:10.016Z,118.13
2018-12-23T09:36:10.007Z,118.13
2018-12-23T09:37:10.009Z,118.13
2018-12-23T09:38:09.982Z,112.50
2018-12-23T09:39:09.976Z,112.50
2018-12-23T09:40:09.959Z,106.88
2018-12-23T09:41:09.955Z,101.25
2018-12-23T09:42:09.936Z,95.63
2018-12-23T09:43:09.926Z,95.63
2018-12-23T09:44:09.916Z,90.00
2018-12-23T09:45:10.105Z,84.38
2018-12-23T09:46:09.891Z,84.38
2018-12-23T09:47:09.880Z,84.38
2018-12-23T09:48:09.868Z,84.38
2018-12-23T09:49:09.858Z,90.00
2018-12-23T09:50:09.847Z,95.63
2018-12-23T09:51:09.834Z,95.63
2018-12-23T09:52:09.822Z,95.63
2018-12-23T09:53:09.812Z,101.25
2018-12-23T09:54:09.801Z,101.25
2018-12-23T09:55:09.788Z,95.63
2018-12-23T09:56:09.780Z,84.38
2018-12-23T09:57:09.771Z,84.38
2018-12-23T09:58:09.755Z,84.38
2018-12-23T09:59:09.746Z,95.63
2018-12-23T10:00:09.732Z,101.25
2018-12-23T10:01:09.721Z,101.25
2018-12-23T10:02:09.711Z,106.88
2018-12-23T10:03:09.697Z,118.13
2018-12-23T10:04:09.690Z,123.75
2018-12-23T10:05:09.676Z,129.38
2018-12-23T10:06:09.673Z,135.00
2018-12-23T10:07:09.652Z,135.00
2018-12-23T10:08:10.205Z,140.63
2018-12-23T10:09:09.631Z,135.00
2018-12-23T10:10:09.619Z,129.38
2018-12-23T10:11:09.610Z,135.00
2018-12-23T10:12:09.598Z,135.00
2018-12-23T10:13:09.584Z,135.00
2018-12-23T10:14:09.574Z,135.00
2018-12-23T10:15:09.768Z,129.38
2018-12-23T10:16:09.556Z,129.38
2018-12-23T10:17:09.541Z,129.38
2018-12-23T10:18:09.530Z,135.00
2018-12-23T10:19:09.519Z,135.00
2018-12-23T10:20:09.506Z,140.63
2018-12-23T10:21:10.268Z,140.63
2018-12-23T10:22:09.483Z,140.63
2018-12-23T10:23:09.471Z,140.63
2018-12-23T10:24:09.460Z,140.63
2018-12-23T10:25:09.449Z,140.63
2018-12-23T10:26:09.443Z,140.63
2018-12-23T10:27:09.426Z,140.63
2018-12-23T10:28:09.414Z,146.25
2018-12-23T10:29:09.406Z,146.25
2018-12-23T10:30:09.398Z,151.88
2018-12-23T10:31:09.388Z,157.50
2018-12-23T10:32:09.375Z,163.13
2018-12-23T10:33:09.357Z,163.13
2018-12-23T10:34:09.346Z,157.50
2018-12-23T10:35:09.339Z,151.88
2018-12-23T10:36:09.325Z,151.88
2018-12-23T10:37:09.311Z,146.25
2018-12-23T10:38:09.301Z,146.25
2018-12-23T10:39:09.290Z,151.88
2018-12-23T10:40:09.283Z,157.50
2018-12-23T10:41:09.274Z,163.13
2018-12-23T10:42:09.257Z,163.13
2018-12-23T10:43:09.245Z,163.13
2018-12-23T10:44:09.281Z,163.13
2018-12-23T10:45:09.219Z,163.13
2018-12-23T10:46:09.212Z,163.13
2018-12-23T10:47:09.199Z,163.13
2018-12-23T10:48:09.190Z,163.13
2018-12-23T10:49:09.174Z,163.13
2018-12-23T10:50:09.166Z,163.13
2018-12-23T10:51:09.153Z,157.50
2018-12-23T10:52:09.139Z,157.50
2018-12-23T10:53:09.133Z,151.88
2018-12-23T10:54:09.117Z,157.50
2018-12-23T10:55:09.105Z,157.50
2018-12-23T10:56:09.099Z,163.13
2018-12-23T10:57:09.081Z,163.13
2018-12-23T10:58:09.075Z,168.75
2018-12-23T10:59:09.059Z,174.38
2018-12-23T11:00:09.048Z,174.38
2018-12-23T11:01:09.037Z,168.75
2018-12-23T11:02:13.647Z,168.75
2018-12-23T11:03:09.013Z,163.13
2018-12-23T11:04:09.003Z,163.13
2018-12-23T11:05:08.990Z,151.88
2018-12-23T11:06:08.978Z,123.75
2018-12-23T11:07:08.970Z,112.50
2018-12-23T11:08:08.956Z,112.50
2018-12-23T11:09:08.948Z,123.75
2018-12-23T11:10:08.932Z,135.00
2018-12-23T11:11:08.922Z,151.88
2018-12-23T11:12:08.911Z,163.13
2018-12-23T11:13:08.902Z,174.38
2018-12-23T11:14:08.886Z,174.38
2018-12-23T11:15:08.873Z,168.75
2018-12-23T11:16:08.864Z,163.13
2018-12-23T11:17:08.852Z,163.13
2018-12-23T11:18:08.841Z,163.13
2018-12-23T11:19:08.835Z,163.13
2018-12-23T11:20:08.817Z,168.75
2018-12-23T11:21:08.804Z,168.75
2018-12-23T11:22:08.999Z,163.13
2018-12-23T11:23:08.785Z,157.50
2018-12-23T11:24:08.769Z,146.25
2018-12-23T11:25:08.764Z,129.38
2018-12-23T11:26:08.749Z,135.00
2018-12-23T11:27:08.737Z,151.88
2018-12-23T11:28:08.723Z,157.50
2018-12-23T11:29:08.711Z,157.50
2018-12-23T11:30:08.700Z,157.50
2018-12-23T11:31:08.688Z,151.88
2018-12-23T11:32:08.679Z,151.88
2018-12-23T11:33:08.665Z,151.88
2018-12-23T11:34:08.654Z,151.88
2018-12-23T11:35:08.642Z,157.50
2018-12-23T11:36:08.635Z,151.88
2018-12-23T11:37:08.620Z,151.88
2018-12-23T11:38:08.613Z,151.88
2018-12-23T11:39:08.597Z,146.25
2018-12-23T11:40:08.584Z,151.88
2018-12-23T11:41:08.574Z,140.63
2018-12-23T11:42:08.562Z,135.00
2018-12-23T11:43:08.558Z,118.13
2018-12-23T11:44:08.539Z,95.63
2018-12-23T11:45:08.527Z,73.13
2018-12-23T11:46:08.516Z,67.50
2018-12-23T11:47:08.507Z,78.75
2018-12-23T11:48:08.561Z,118.13
2018-12-23T11:49:08.485Z,151.88
2018-12-23T11:50:08.759Z,163.13
2018-12-23T11:51:08.459Z,163.13
2018-12-23T11:52:08.448Z,151.88
2018-12-23T11:53:08.436Z,135.00
2018-12-23T11:54:08.425Z,118.13
2018-12-23T11:55:08.414Z,123.75
2018-12-23T11:56:08.405Z,135.00
2018-12-23T11:57:08.390Z,146.25
2018-12-23T11:58:08.379Z,157.50
2018-12-23T11:59:08.572Z,157.50
2018-12-23T12:00:08.359Z,157.50
2018-12-23T12:01:08.346Z,157.50
2018-12-23T12:02:15.270Z,163.13
2018-12-23T12:03:08.327Z,163.13
2018-12-23T12:04:08.312Z,163.13
2018-12-23T12:05:08.301Z,151.88
2018-12-23T12:06:08.293Z,129.38
2018-12-23T12:07:08.279Z,106.88
2018-12-23T12:08:08.267Z,95.63
2018-12-23T12:09:08.257Z,84.38
2018-12-23T12:10:08.246Z,95.63
2018-12-23T12:11:08.234Z,101.25
2018-12-23T12:12:08.223Z,112.50
2018-12-23T12:13:08.212Z,123.75
2018-12-23T12:14:08.205Z,129.38
2018-12-23T12:15:08.192Z,123.75
2018-12-23T12:16:08.182Z,118.13
2018-12-23T12:17:08.168Z,112.50
2018-12-23T12:18:08.156Z,112.50
2018-12-23T12:19:08.145Z,112.50
2018-12-23T12:20:08.142Z,106.88
2018-12-23T12:21:08.123Z,106.88
2018-12-23T12:22:08.118Z,106.88
2018-12-23T12:23:08.101Z,106.88
2018-12-23T12:24:08.089Z,112.50
2018-12-23T12:25:08.079Z,112.50
2018-12-23T12:26:08.069Z,106.88
2018-12-23T12:27:08.058Z,112.50
2018-12-23T12:28:08.044Z,106.88
2018-12-23T12:29:08.237Z,106.88
2018-12-23T12:30:08.022Z,106.88
2018-12-23T12:31:08.017Z,106.88
2018-12-23T12:32:07.999Z,106.88
2018-12-23T12:33:07.988Z,101.25
2018-12-23T12:34:07.977Z,101.25
2018-12-23T12:35:07.969Z,101.25
2018-12-23T12:36:07.961Z,101.25
2018-12-23T12:37:07.943Z,106.88
2018-12-23T12:38:07.935Z,106.88
2018-12-23T12:39:07.921Z,95.63
2018-12-23T12:40:07.911Z,101.25
2018-12-23T12:41:07.899Z,95.63
2018-12-23T12:42:07.892Z,84.38
2018-12-23T12:43:07.875Z,95.63
2018-12-23T12:44:07.867Z,101.25
2018-12-23T12:45:07.852Z,106.88
2018-12-23T12:46:07.840Z,101.25
2018-12-23T12:47:07.831Z,95.63
2018-12-23T12:48:07.821Z,95.63
2018-12-23T12:49:07.808Z,95.63
2018-12-23T12:50:07.798Z,95.63
2018-12-23T12:51:07.783Z,84.38
2018-12-23T12:52:07.771Z,101.25
2018-12-23T12:53:07.760Z,106.88
2018-12-23T12:54:07.751Z,106.88
2018-12-23T12:55:07.745Z,101.25
2018-12-23T12:56:07.726Z,106.88
2018-12-23T12:57:07.720Z,101.25
2018-12-23T12:58:07.703Z,101.25
2018-12-23T12:59:07.697Z,101.25
2018-12-23T13:00:07.681Z,101.25
2018-12-23T13:01:07.670Z,101.25